Terminal Aerodrome Forecast
Issued by NWS Louisville, KY

Home | Current Version | Previous Version | Text Only | Print | Product List | Glossary On
Versions: 1 2 3 4 5 6 7 8 9 10 11 12 13 14 15
000
FTUS43 KLMK 271142
TAFLEX
TAF
KLEX 271142Z 2712/2812 19007KT P6SM -SHRA BKN040
     FM271500 23014G23KT P6SM BKN022
     FM271800 25011G18KT P6SM BKN050
     FM280000 VRB03KT P6SM FEW100 BKN250=

USA.gov is the U.S. government's official web portal to all federal, state and local government web resources and services.